This is the latest recevied weather packets stored in our database for station/object WX7FGZ-6. If no packets are shown the sender has not sent any weather packets the latest 1 day(s).
| Time | Temp. | Humidity | Pressure | Rain* | Wind** | Luminosity | Snow |
|---|---|---|---|---|---|---|---|
| 1778009503 | -1.11° C | 78% | 1013.1 hPa | 0 mm | 3.13 m/s, 179° | - | - |
| 1778009250 | -0.56° C | 77% | 1013.3 hPa | 0 mm | 2.68 m/s, 186° | - | - |
| 1778009203 | -0.56° C | 77% | 1013.3 hPa | 0 mm | 2.68 m/s, 186° | - | - |
| 1778008936 | -0.56° C | 75% | 1013.4 hPa | 0 mm | 2.68 m/s, 183° | - | - |
| 1778008903 | -0.56° C | 75% | 1013.4 hPa | 0 mm | 2.68 m/s, 183° | - | - |
| 1778008602 | 0° C | 73% | 1013.4 hPa | 0 mm | 2.68 m/s, 182° | - | - |
| 1778008302 | 0° C | 73% | 1013.4 hPa | 0 mm | 2.68 m/s, 192° | - | - |
| 1778008003 | 0° C | 74% | 1013.5 hPa | 0 mm | 2.68 m/s, 184° | - | - |
| 1778007858 | 0.56° C | 70% | 1013.5 hPa | 0 mm | 2.68 m/s, 189° | - | - |
| 1778007703 | 0.56° C | 70% | 1013.5 hPa | 0 mm | 2.68 m/s, 189° | - | - |
| 1778007403 | 0.56° C | 70% | 1013.5 hPa | 0 mm | 2.68 m/s, 199° | - | - |
| 1778007342 | 0.56° C | 70% | 1013.6 hPa | 0 mm | 4.92 m/s, 177° | - | - |
| 1778007103 | 0.56° C | 70% | 1013.6 hPa | 0 mm | 4.92 m/s, 177° | - | - |
| 1778006841 | 1.11° C | 67% | 1013 hPa | 0 mm | 3.13 m/s, 202° | - | - |
| 1778006670 | 1.11° C | 67% | 1013 hPa | 0 mm | 3.13 m/s, 202° | - | - |
| 1778006537 | 0° C | 72% | 1013.3 hPa | 0 mm | 2.24 m/s, 269° | - | - |
| 1778006370 | 0° C | 72% | 1013.3 hPa | 0 mm | 2.24 m/s, 269° | - | - |
| 1778006070 | 0° C | 72% | 1013.1 hPa | 0 mm | 3.13 m/s, 189° | - | - |
| 1778005770 | 0° C | 69% | 1013 hPa | 0 mm | 3.58 m/s, 185° | - | - |
| 1778005470 | 0.56° C | 68% | 1013 hPa | 0 mm | 2.68 m/s, 186° | - | - |
| 1778005170 | 0° C | 74% | 1013.1 hPa | 0 mm | 2.68 m/s, 182° | - | - |
| 1778005018 | -0.56° C | 71% | 1013.4 hPa | 0 mm | 2.24 m/s, 184° | - | - |
| 1778004869 | -0.56° C | 71% | 1013.4 hPa | 0 mm | 2.24 m/s, 184° | - | - |
| 1778004552 | 0° C | 68% | 1013.4 hPa | 0 mm | 3.58 m/s, 177° | - | - |
| 1778004251 | 0.56° C | 69% | 1013.3 hPa | 0 mm | 4.92 m/s, 176° | - | - |
* Rain latest hour (hover to see other rain measurements)
** Current wind speed in m/s (hover to see current wind gust speed)